sensor_id;sensor_type;location;lat;lon;timestamp;pressure;altitude;pressure_sealevel;temperature;humidity
12215;BME280;6170;42.206;24.142;2023-04-26T00:00:17;97877.28;;;12.74;87.53
12215;BME280;6170;42.206;24.142;2023-04-26T00:02:46;97875.69;;;12.50;88.00
12215;BME280;6170;42.206;24.142;2023-04-26T00:05:14;97860.81;;;12.71;87.07
12215;BME280;6170;42.206;24.142;2023-04-26T00:07:41;97864.91;;;12.73;86.08
12215;BME280;6170;42.206;24.142;2023-04-26T00:10:09;97852.81;;;12.36;86.30
12215;BME280;6170;42.206;24.142;2023-04-26T00:12:36;97854.53;;;12.53;85.41
12215;BME280;6170;42.206;24.142;2023-04-26T00:15:04;97867.66;;;12.38;85.65
12215;BME280;6170;42.206;24.142;2023-04-26T00:17:31;97848.63;;;12.28;85.14
12215;BME280;6170;42.206;24.142;2023-04-26T00:19:59;97837.91;;;12.28;85.64
12215;BME280;6170;42.206;24.142;2023-04-26T00:22:26;97825.16;;;12.35;84.99
12215;BME280;6170;42.206;24.142;2023-04-26T00:24:53;97825.75;;;12.37;85.15
12215;BME280;6170;42.206;24.142;2023-04-26T00:27:20;97826.31;;;12.39;84.94
12215;BME280;6170;42.206;24.142;2023-04-26T00:29:47;97828.31;;;12.32;84.65
12215;BME280;6170;42.206;24.142;2023-04-26T00:32:14;97821.00;;;12.16;85.07
12215;BME280;6170;42.206;24.142;2023-04-26T00:34:40;97813.84;;;12.22;84.92
12215;BME280;6170;42.206;24.142;2023-04-26T00:37:09;97809.31;;;12.10;85.35
12215;BME280;6170;42.206;24.142;2023-04-26T00:39:36;97819.44;;;12.32;84.43
12215;BME280;6170;42.206;24.142;2023-04-26T00:42:03;97821.47;;;12.53;83.76
12215;BME280;6170;42.206;24.142;2023-04-26T00:44:30;97819.59;;;12.65;83.22
12215;BME280;6170;42.206;24.142;2023-04-26T00:46:57;97823.44;;;12.69;83.41
12215;BME280;6170;42.206;24.142;2023-04-26T00:49:24;97815.22;;;12.36;83.56
12215;BME280;6170;42.206;24.142;2023-04-26T00:51:51;97815.28;;;12.52;84.38
12215;BME280;6170;42.206;24.142;2023-04-26T00:54:21;97802.13;;;12.39;83.74
12215;BME280;6170;42.206;24.142;2023-04-26T00:56:48;97836.03;;;12.29;84.75
12215;BME280;6170;42.206;24.142;2023-04-26T00:59:17;97848.31;;;12.25;85.42
12215;BME280;6170;42.206;24.142;2023-04-26T01:01:44;97824.88;;;11.85;86.07
12215;BME280;6170;42.206;24.142;2023-04-26T01:04:13;97825.00;;;11.90;86.25
12215;BME280;6170;42.206;24.142;2023-04-26T01:06:40;97829.16;;;11.75;86.44
12215;BME280;6170;42.206;24.142;2023-04-26T01:09:07;97811.97;;;11.41;88.08
12215;BME280;6170;42.206;24.142;2023-04-26T01:11:37;97813.84;;;11.52;87.46
12215;BME280;6170;42.206;24.142;2023-04-26T01:14:04;97809.34;;;11.76;86.89
12215;BME280;6170;42.206;24.142;2023-04-26T01:16:33;97799.47;;;11.46;87.70
12215;BME280;6170;42.206;24.142;2023-04-26T01:19:06;97811.50;;;11.32;89.13
12215;BME280;6170;42.206;24.142;2023-04-26T01:21:35;97814.06;;;11.39;88.90
12215;BME280;6170;42.206;24.142;2023-04-26T01:24:04;97816.06;;;11.55;88.07
12215;BME280;6170;42.206;24.142;2023-04-26T01:26:32;97819.31;;;11.45;87.77
12215;BME280;6170;42.206;24.142;2023-04-26T01:28:59;97821.66;;;11.65;87.10
12215;BME280;6170;42.206;24.142;2023-04-26T01:31:26;97844.84;;;11.48;87.31
12215;BME280;6170;42.206;24.142;2023-04-26T01:33:53;97844.00;;;11.24;87.35
12215;BME280;6170;42.206;24.142;2023-04-26T01:36:20;97849.25;;;11.31;86.82
12215;BME280;6170;42.206;24.142;2023-04-26T01:38:46;97844.94;;;11.30;86.80
12215;BME280;6170;42.206;24.142;2023-04-26T01:41:15;97837.28;;;11.45;85.73
12215;BME280;6170;42.206;24.142;2023-04-26T01:43:42;97838.44;;;11.60;86.00
12215;BME280;6170;42.206;24.142;2023-04-26T01:46:08;97833.91;;;11.61;84.78
12215;BME280;6170;42.206;24.142;2023-04-26T01:48:35;97841.47;;;11.52;86.16
12215;BME280;6170;42.206;24.142;2023-04-26T01:51:02;97837.41;;;11.61;85.23
12215;BME280;6170;42.206;24.142;2023-04-26T01:53:29;97835.28;;;11.52;84.85
12215;BME280;6170;42.206;24.142;2023-04-26T01:55:59;97839.88;;;11.63;84.05
12215;BME280;6170;42.206;24.142;2023-04-26T01:58:27;97841.53;;;11.76;84.02
12215;BME280;6170;42.206;24.142;2023-04-26T02:00:55;97830.47;;;11.72;84.10
12215;BME280;6170;42.206;24.142;2023-04-26T02:03:22;97828.13;;;11.76;83.80
12215;BME280;6170;42.206;24.142;2023-04-26T02:05:49;97826.91;;;11.60;84.35
12215;BME280;6170;42.206;24.142;2023-04-26T02:08:16;97821.53;;;11.60;83.80
12215;BME280;6170;42.206;24.142;2023-04-26T02:10:43;97823.44;;;11.59;83.64
12215;BME280;6170;42.206;24.142;2023-04-26T02:13:10;97822.69;;;11.52;83.52
12215;BME280;6170;42.206;24.142;2023-04-26T02:15:38;97855.63;;;11.71;83.16
12215;BME280;6170;42.206;24.142;2023-04-26T02:18:05;97827.03;;;11.42;84.30
12215;BME280;6170;42.206;24.142;2023-04-26T02:20:32;97830.41;;;11.37;83.95
12215;BME280;6170;42.206;24.142;2023-04-26T02:22:59;97825.38;;;11.41;84.42
12215;BME280;6170;42.206;24.142;2023-04-26T02:25:26;97838.31;;;11.32;84.73
12215;BME280;6170;42.206;24.142;2023-04-26T02:27:53;97833.66;;;11.39;84.40
12215;BME280;6170;42.206;24.142;2023-04-26T02:30:20;97834.25;;;11.41;84.91
12215;BME280;6170;42.206;24.142;2023-04-26T02:32:48;97851.59;;;11.39;84.88
12215;BME280;6170;42.206;24.142;2023-04-26T02:35:15;97842.59;;;11.21;85.88
12215;BME280;6170;42.206;24.142;2023-04-26T02:37:42;97837.00;;;11.35;86.13
12215;BME280;6170;42.206;24.142;2023-04-26T02:40:09;97841.31;;;11.24;86.65
12215;BME280;6170;42.206;24.142;2023-04-26T02:42:36;97836.25;;;11.16;87.11
12215;BME280;6170;42.206;24.142;2023-04-26T02:45:04;97832.69;;;11.34;86.58
12215;BME280;6170;42.206;24.142;2023-04-26T02:47:31;97832.06;;;11.08;87.49
12215;BME280;6170;42.206;24.142;2023-04-26T02:50:02;97832.13;;;11.32;86.27
12215;BME280;6170;42.206;24.142;2023-04-26T02:52:29;97819.13;;;11.17;85.83
12215;BME280;6170;42.206;24.142;2023-04-26T02:54:56;97814.94;;;11.09;86.20
12215;BME280;6170;42.206;24.142;2023-04-26T02:57:23;97819.53;;;11.32;85.10
12215;BME280;6170;42.206;24.142;2023-04-26T02:59:50;97801.22;;;10.88;84.64
12215;BME280;6170;42.206;24.142;2023-04-26T03:02:17;97818.88;;;11.07;85.35
12215;BME280;6170;42.206;24.142;2023-04-26T03:04:44;97819.13;;;11.05;84.65
12215;BME280;6170;42.206;24.142;2023-04-26T03:07:12;97820.38;;;10.73;86.08
12215;BME280;6170;42.206;24.142;2023-04-26T03:09:39;97821.09;;;10.80;86.18
12215;BME280;6170;42.206;24.142;2023-04-26T03:12:06;97811.00;;;10.82;85.49
12215;BME280;6170;42.206;24.142;2023-04-26T03:14:33;97827.06;;;10.82;86.47
12215;BME280;6170;42.206;24.142;2023-04-26T03:17:00;97830.09;;;10.86;85.97
12215;BME280;6170;42.206;24.142;2023-04-26T03:19:27;97836.16;;;10.63;86.36
12215;BME280;6170;42.206;24.142;2023-04-26T03:21:54;97831.25;;;10.78;85.56
12215;BME280;6170;42.206;24.142;2023-04-26T03:24:22;97834.56;;;10.92;85.02
12215;BME280;6170;42.206;24.142;2023-04-26T03:26:49;97868.09;;;11.12;85.65
12215;BME280;6170;42.206;24.142;2023-04-26T03:29:17;97841.69;;;10.98;85.11
12215;BME280;6170;42.206;24.142;2023-04-26T03:31:43;97843.25;;;11.05;84.50
12215;BME280;6170;42.206;24.142;2023-04-26T03:34:10;97837.63;;;11.07;84.45
12215;BME280;6170;42.206;24.142;2023-04-26T03:36:37;97849.38;;;10.94;84.43
12215;BME280;6170;42.206;24.142;2023-04-26T03:39:04;97881.81;;;11.04;85.50
12215;BME280;6170;42.206;24.142;2023-04-26T03:41:32;97851.59;;;10.97;85.16
12215;BME280;6170;42.206;24.142;2023-04-26T03:44:01;97846.47;;;10.48;87.36
12215;BME280;6170;42.206;24.142;2023-04-26T03:46:28;97837.78;;;10.34;88.06
12215;BME280;6170;42.206;24.142;2023-04-26T03:48:54;97844.72;;;10.71;87.16
12215;BME280;6170;42.206;24.142;2023-04-26T03:51:21;97848.81;;;11.04;86.07
12215;BME280;6170;42.206;24.142;2023-04-26T03:53:48;97854.72;;;10.94;85.80
12215;BME280;6170;42.206;24.142;2023-04-26T03:56:15;97853.16;;;10.75;85.96
12215;BME280;6170;42.206;24.142;2023-04-26T03:58:43;97846.22;;;10.49;87.67
12215;BME280;6170;42.206;24.142;2023-04-26T04:01:10;97840.16;;;10.42;87.74
12215;BME280;6170;42.206;24.142;2023-04-26T04:03:37;97844.44;;;10.61;87.41
12215;BME280;6170;42.206;24.142;2023-04-26T04:06:04;97858.94;;;10.72;87.52
12215;BME280;6170;42.206;24.142;2023-04-26T04:08:32;97864.03;;;10.92;87.45
12215;BME280;6170;42.206;24.142;2023-04-26T04:10:59;97865.59;;;11.41;85.62
12215;BME280;6170;42.206;24.142;2023-04-26T04:13:26;97878.91;;;11.47;84.72
12215;BME280;6170;42.206;24.142;2023-04-26T04:15:55;97874.13;;;11.08;86.46
12215;BME280;6170;42.206;24.142;2023-04-26T04:18:22;97868.16;;;11.77;84.28
12215;BME280;6170;42.206;24.142;2023-04-26T04:20:48;97867.56;;;12.33;82.15
12215;BME280;6170;42.206;24.142;2023-04-26T04:23:15;97867.34;;;12.75;80.46
12215;BME280;6170;42.206;24.142;2023-04-26T04:25:42;97858.91;;;13.23;79.15
12215;BME280;6170;42.206;24.142;2023-04-26T04:28:10;97867.19;;;13.49;77.94
12215;BME280;6170;42.206;24.142;2023-04-26T04:30:37;97865.22;;;13.17;78.71
12215;BME280;6170;42.206;24.142;2023-04-26T04:33:06;97867.81;;;12.72;79.95
12215;BME280;6170;42.206;24.142;2023-04-26T04:35:33;97874.50;;;12.97;80.44
12215;BME280;6170;42.206;24.142;2023-04-26T04:37:59;97860.69;;;13.34;78.32
12215;BME280;6170;42.206;24.142;2023-04-26T04:40:27;97868.00;;;13.67;76.97
12215;BME280;6170;42.206;24.142;2023-04-26T04:42:54;97861.06;;;13.87;76.55
12215;BME280;6170;42.206;24.142;2023-04-26T04:45:21;97875.09;;;13.89;76.28
12215;BME280;6170;42.206;24.142;2023-04-26T04:47:48;97872.47;;;14.11;76.06
12215;BME280;6170;42.206;24.142;2023-04-26T04:50:16;97871.31;;;14.41;74.44
12215;BME280;6170;42.206;24.142;2023-04-26T04:52:43;97883.75;;;13.75;77.84
12215;BME280;6170;42.206;24.142;2023-04-26T04:55:10;97867.97;;;13.50;77.64
12215;BME280;6170;42.206;24.142;2023-04-26T04:57:37;97864.63;;;13.43;77.41
12215;BME280;6170;42.206;24.142;2023-04-26T05:00:05;97862.34;;;13.68;77.97
12215;BME280;6170;42.206;24.142;2023-04-26T05:02:34;97862.91;;;14.20;77.65
12215;BME280;6170;42.206;24.142;2023-04-26T05:05:02;97859.63;;;15.00;75.92
12215;BME280;6170;42.206;24.142;2023-04-26T05:07:31;97866.69;;;14.58;74.86
12215;BME280;6170;42.206;24.142;2023-04-26T05:09:58;97858.03;;;14.77;75.68
12215;BME280;6170;42.206;24.142;2023-04-26T05:12:25;97855.78;;;14.91;73.84
12215;BME280;6170;42.206;24.142;2023-04-26T05:14:52;97850.63;;;14.68;73.79
12215;BME280;6170;42.206;24.142;2023-04-26T05:17:19;97857.41;;;15.46;73.80
12215;BME280;6170;42.206;24.142;2023-04-26T05:19:46;97851.94;;;15.67;72.88
12215;BME280;6170;42.206;24.142;2023-04-26T05:22:13;97853.50;;;16.32;70.59
12215;BME280;6170;42.206;24.142;2023-04-26T05:24:45;97864.59;;;15.94;71.34
12215;BME280;6170;42.206;24.142;2023-04-26T05:27:12;97855.78;;;15.45;71.34
12215;BME280;6170;42.206;24.142;2023-04-26T05:29:39;97846.91;;;15.49;72.46
12215;BME280;6170;42.206;24.142;2023-04-26T05:32:06;97860.63;;;15.43;72.48
12215;BME280;6170;42.206;24.142;2023-04-26T05:34:33;97855.81;;;15.23;73.77
12215;BME280;6170;42.206;24.142;2023-04-26T05:37:00;97844.03;;;15.29;73.18
12215;BME280;6170;42.206;24.142;2023-04-26T05:39:27;97851.94;;;14.65;73.69
12215;BME280;6170;42.206;24.142;2023-04-26T05:41:55;97859.97;;;15.04;73.50
12215;BME280;6170;42.206;24.142;2023-04-26T05:44:22;97861.16;;;15.45;72.45
12215;BME280;6170;42.206;24.142;2023-04-26T05:46:49;97857.09;;;14.67;74.14
12215;BME280;6170;42.206;24.142;2023-04-26T05:49:16;97855.06;;;15.01;74.19
12215;BME280;6170;42.206;24.142;2023-04-26T05:51:43;97872.22;;;14.68;74.55
12215;BME280;6170;42.206;24.142;2023-04-26T05:54:10;97871.69;;;14.71;75.42
12215;BME280;6170;42.206;24.142;2023-04-26T05:56:37;97851.75;;;15.20;73.19
12215;BME280;6170;42.206;24.142;2023-04-26T05:59:05;97857.34;;;15.41;73.37
12215;BME280;6170;42.206;24.142;2023-04-26T06:01:32;97854.44;;;14.94;73.90
12215;BME280;6170;42.206;24.142;2023-04-26T06:03:59;97869.13;;;15.83;71.29
12215;BME280;6170;42.206;24.142;2023-04-26T06:06:25;97850.41;;;16.13;72.62
12215;BME280;6170;42.206;24.142;2023-04-26T06:08:53;97855.50;;;16.05;72.01
12215;BME280;6170;42.206;24.142;2023-04-26T06:11:20;97856.28;;;15.68;69.43
12215;BME280;6170;42.206;24.142;2023-04-26T06:13:47;97843.38;;;15.44;70.51
12215;BME280;6170;42.206;24.142;2023-04-26T06:16:15;97848.66;;;15.34;70.48
12215;BME280;6170;42.206;24.142;2023-04-26T06:18:42;97850.25;;;15.56;71.12
12215;BME280;6170;42.206;24.142;2023-04-26T06:21:09;97834.63;;;15.95;70.56
12215;BME280;6170;42.206;24.142;2023-04-26T06:23:36;97841.31;;;16.30;68.56
12215;BME280;6170;42.206;24.142;2023-04-26T06:26:02;97835.28;;;17.67;67.52
12215;BME280;6170;42.206;24.142;2023-04-26T06:28:29;97826.50;;;18.46;66.06
12215;BME280;6170;42.206;24.142;2023-04-26T06:30:56;97815.13;;;18.49;61.92
12215;BME280;6170;42.206;24.142;2023-04-26T06:33:25;97818.84;;;18.68;61.56
12215;BME280;6170;42.206;24.142;2023-04-26T06:35:51;97822.72;;;18.47;63.51
12215;BME280;6170;42.206;24.142;2023-04-26T06:38:18;97827.97;;;17.88;61.62
12215;BME280;6170;42.206;24.142;2023-04-26T06:40:45;97827.19;;;17.72;60.89
12215;BME280;6170;42.206;24.142;2023-04-26T06:43:12;97815.19;;;17.08;63.95
12215;BME280;6170;42.206;24.142;2023-04-26T06:45:39;97830.09;;;17.20;63.72
12215;BME280;6170;42.206;24.142;2023-04-26T06:48:06;97821.47;;;17.89;63.68
12215;BME280;6170;42.206;24.142;2023-04-26T06:50:36;97835.03;;;17.84;60.90
12215;BME280;6170;42.206;24.142;2023-04-26T06:53:03;97828.63;;;19.23;62.37
12215;BME280;6170;42.206;24.142;2023-04-26T06:55:30;97829.06;;;19.80;59.10
12215;BME280;6170;42.206;24.142;2023-04-26T06:57:57;97824.16;;;19.43;57.04
12215;BME280;6170;42.206;24.142;2023-04-26T07:00:24;97831.53;;;18.88;58.25
12215;BME280;6170;42.206;24.142;2023-04-26T07:02:52;97817.00;;;18.59;59.08
12215;BME280;6170;42.206;24.142;2023-04-26T07:05:19;97834.16;;;18.29;60.59
12215;BME280;6170;42.206;24.142;2023-04-26T07:07:47;97830.75;;;18.77;59.93
12215;BME280;6170;42.206;24.142;2023-04-26T07:10:15;97846.22;;;19.31;57.48
12215;BME280;6170;42.206;24.142;2023-04-26T07:12:42;97830.00;;;18.72;57.59
12215;BME280;6170;42.206;24.142;2023-04-26T07:15:09;97838.00;;;18.97;58.51
12215;BME280;6170;42.206;24.142;2023-04-26T07:17:36;97838.69;;;18.64;59.61
12215;BME280;6170;42.206;24.142;2023-04-26T07:20:04;97832.19;;;19.19;58.50
12215;BME280;6170;42.206;24.142;2023-04-26T07:22:31;97824.50;;;19.31;58.71
12215;BME280;6170;42.206;24.142;2023-04-26T07:24:59;97833.78;;;18.76;59.11
12215;BME280;6170;42.206;24.142;2023-04-26T07:27:26;97834.84;;;18.75;56.86
12215;BME280;6170;42.206;24.142;2023-04-26T07:29:53;97836.28;;;18.47;57.63
12215;BME280;6170;42.206;24.142;2023-04-26T07:32:21;97839.31;;;18.25;57.12
12215;BME280;6170;42.206;24.142;2023-04-26T07:34:48;97836.34;;;18.07;57.53
12215;BME280;6170;42.206;24.142;2023-04-26T07:37:15;97835.56;;;17.76;58.67
12215;BME280;6170;42.206;24.142;2023-04-26T07:39:42;97839.09;;;17.66;59.86
12215;BME280;6170;42.206;24.142;2023-04-26T07:42:10;97833.38;;;17.88;58.91
12215;BME280;6170;42.206;24.142;2023-04-26T07:44:37;97820.91;;;18.17;58.64
12215;BME280;6170;42.206;24.142;2023-04-26T07:47:04;97830.59;;;18.38;58.20
12215;BME280;6170;42.206;24.142;2023-04-26T07:49:37;97843.91;;;18.35;57.46
12215;BME280;6170;42.206;24.142;2023-04-26T07:52:03;97846.88;;;18.28;58.18
12215;BME280;6170;42.206;24.142;2023-04-26T07:54:30;97834.03;;;18.79;58.43
12215;BME280;6170;42.206;24.142;2023-04-26T07:56:57;97839.44;;;20.06;56.48
12215;BME280;6170;42.206;24.142;2023-04-26T07:59:26;97832.63;;;20.09;54.68
12215;BME280;6170;42.206;24.142;2023-04-26T08:01:52;97834.75;;;20.12;56.21
12215;BME280;6170;42.206;24.142;2023-04-26T08:04:28;97846.91;;;20.96;54.29
12215;BME280;6170;42.206;24.142;2023-04-26T08:06:55;97839.16;;;20.60;53.93
12215;BME280;6170;42.206;24.142;2023-04-26T08:09:22;97838.09;;;19.31;53.83
12215;BME280;6170;42.206;24.142;2023-04-26T08:11:49;97864.25;;;20.00;53.44
12215;BME280;6170;42.206;24.142;2023-04-26T08:14:16;97838.53;;;19.48;52.52
12215;BME280;6170;42.206;24.142;2023-04-26T08:16:44;97836.63;;;19.00;54.72
12215;BME280;6170;42.206;24.142;2023-04-26T08:19:11;97828.19;;;18.32;53.31
12215;BME280;6170;42.206;24.142;2023-04-26T08:21:38;97832.56;;;17.98;55.42
12215;BME280;6170;42.206;24.142;2023-04-26T08:24:05;97832.25;;;18.24;54.94
12215;BME280;6170;42.206;24.142;2023-04-26T08:26:32;97808.72;;;17.29;55.35
12215;BME280;6170;42.206;24.142;2023-04-26T08:28:59;97836.06;;;17.37;57.05
12215;BME280;6170;42.206;24.142;2023-04-26T08:31:26;97826.03;;;17.33;58.26
12215;BME280;6170;42.206;24.142;2023-04-26T08:33:54;97822.84;;;17.71;56.02
12215;BME280;6170;42.206;24.142;2023-04-26T08:36:21;97829.88;;;17.67;57.85
12215;BME280;6170;42.206;24.142;2023-04-26T08:38:48;97834.72;;;17.50;57.92
12215;BME280;6170;42.206;24.142;2023-04-26T08:41:20;97827.16;;;17.47;58.09
12215;BME280;6170;42.206;24.142;2023-04-26T08:43:48;97831.75;;;17.97;58.60
12215;BME280;6170;42.206;24.142;2023-04-26T08:46:18;97822.84;;;17.91;57.82
12215;BME280;6170;42.206;24.142;2023-04-26T08:48:50;97836.09;;;18.13;59.82
12215;BME280;6170;42.206;24.142;2023-04-26T08:51:22;97828.63;;;18.69;58.00
12215;BME280;6170;42.206;24.142;2023-04-26T08:53:50;97834.72;;;18.21;59.52
12215;BME280;6170;42.206;24.142;2023-04-26T08:56:21;97821.97;;;18.31;58.06
12215;BME280;6170;42.206;24.142;2023-04-26T08:58:48;97860.13;;;18.65;57.77
12215;BME280;6170;42.206;24.142;2023-04-26T09:01:17;97838.22;;;18.26;57.39
12215;BME280;6170;42.206;24.142;2023-04-26T09:03:46;97830.91;;;18.27;56.15
12215;BME280;6170;42.206;24.142;2023-04-26T09:06:13;97817.59;;;18.40;57.89
12215;BME280;6170;42.206;24.142;2023-04-26T09:08:43;97839.00;;;18.37;57.52
12215;BME280;6170;42.206;24.142;2023-04-26T09:11:10;97835.41;;;18.72;56.81
12215;BME280;6170;42.206;24.142;2023-04-26T09:13:37;97840.63;;;18.58;57.60
12215;BME280;6170;42.206;24.142;2023-04-26T09:16:04;97837.66;;;19.09;56.93
12215;BME280;6170;42.206;24.142;2023-04-26T09:18:31;97835.56;;;18.96;57.15
12215;BME280;6170;42.206;24.142;2023-04-26T09:21:03;97833.09;;;18.99;57.67
12215;BME280;6170;42.206;24.142;2023-04-26T09:23:30;97834.09;;;19.18;56.87
12215;BME280;6170;42.206;24.142;2023-04-26T09:26:20;97834.88;;;19.24;57.93
12215;BME280;6170;42.206;24.142;2023-04-26T09:28:47;97840.13;;;19.05;58.95
12215;BME280;6170;42.206;24.142;2023-04-26T09:31:35;97837.22;;;18.87;57.30
12215;BME280;6170;42.206;24.142;2023-04-26T09:34:03;97838.88;;;18.88;56.42
12215;BME280;6170;42.206;24.142;2023-04-26T09:36:30;97821.75;;;18.87;57.82
12215;BME280;6170;42.206;24.142;2023-04-26T09:38:57;97820.75;;;18.73;58.23
12215;BME280;6170;42.206;24.142;2023-04-26T09:41:41;97868.25;;;18.50;57.79
12215;BME280;6170;42.206;24.142;2023-04-26T09:44:19;97828.97;;;18.32;57.76
12215;BME280;6170;42.206;24.142;2023-04-26T09:46:57;97833.88;;;18.40;58.71
12215;BME280;6170;42.206;24.142;2023-04-26T09:49:25;97834.16;;;18.29;59.06
12215;BME280;6170;42.206;24.142;2023-04-26T09:52:02;97842.59;;;18.17;59.38
12215;BME280;6170;42.206;24.142;2023-04-26T09:54:47;97847.50;;;18.05;58.73
12215;BME280;6170;42.206;24.142;2023-04-26T09:57:16;97839.91;;;17.92;57.58
12215;BME280;6170;42.206;24.142;2023-04-26T09:59:45;97846.41;;;17.96;57.69
12215;BME280;6170;42.206;24.142;2023-04-26T10:02:20;97824.94;;;17.24;57.93
12215;BME280;6170;42.206;24.142;2023-04-26T10:04:48;97843.16;;;17.79;57.10
12215;BME280;6170;42.206;24.142;2023-04-26T10:07:18;97846.09;;;17.52;57.43
12215;BME280;6170;42.206;24.142;2023-04-26T10:09:46;97841.81;;;17.76;57.81
12215;BME280;6170;42.206;24.142;2023-04-26T10:12:14;97847.75;;;17.93;56.35
12215;BME280;6170;42.206;24.142;2023-04-26T10:14:43;97841.00;;;17.86;55.71
12215;BME280;6170;42.206;24.142;2023-04-26T10:17:12;97839.09;;;17.71;56.84
12215;BME280;6170;42.206;24.142;2023-04-26T10:19:41;97836.06;;;17.52;55.95
12215;BME280;6170;42.206;24.142;2023-04-26T10:22:13;97827.38;;;17.25;58.35
12215;BME280;6170;42.206;24.142;2023-04-26T10:24:42;97838.00;;;17.92;57.31
12215;BME280;6170;42.206;24.142;2023-04-26T10:27:09;97824.94;;;17.24;56.31
12215;BME280;6170;42.206;24.142;2023-04-26T10:30:11;97829.81;;;17.17;57.27
12215;BME280;6170;42.206;24.142;2023-04-26T10:33:10;97858.88;;;17.72;56.41
12215;BME280;6170;42.206;24.142;2023-04-26T10:36:07;97828.50;;;17.55;56.19
12215;BME280;6170;42.206;24.142;2023-04-26T10:38:36;97824.72;;;18.01;55.70
12215;BME280;6170;42.206;24.142;2023-04-26T10:41:29;97846.69;;;18.00;54.89
12215;BME280;6170;42.206;24.142;2023-04-26T10:43:57;97804.41;;;17.58;56.34
12215;BME280;6170;42.206;24.142;2023-04-26T10:46:35;97805.72;;;18.16;54.96
12215;BME280;6170;42.206;24.142;2023-04-26T10:49:18;97812.91;;;18.71;57.11
12215;BME280;6170;42.206;24.142;2023-04-26T10:52:09;97844.75;;;18.20;55.59
12215;BME280;6170;42.206;24.142;2023-04-26T10:55:00;97812.25;;;17.95;55.79
12215;BME280;6170;42.206;24.142;2023-04-26T10:57:47;97812.81;;;17.67;55.16
12215;BME280;6170;42.206;24.142;2023-04-26T11:00:19;97803.59;;;17.78;55.05
12215;BME280;6170;42.206;24.142;2023-04-26T11:02:56;97803.84;;;17.56;55.51
12215;BME280;6170;42.206;24.142;2023-04-26T11:05:49;97813.59;;;17.57;54.65
12215;BME280;6170;42.206;24.142;2023-04-26T11:08:18;97807.09;;;17.88;53.25
12215;BME280;6170;42.206;24.142;2023-04-26T11:10:50;97810.09;;;17.77;54.83
12215;BME280;6170;42.206;24.142;2023-04-26T11:13:18;97804.88;;;18.31;54.07
12215;BME280;6170;42.206;24.142;2023-04-26T11:15:45;97797.63;;;17.96;53.21
12215;BME280;6170;42.206;24.142;2023-04-26T11:18:17;97811.09;;;18.31;52.38
12215;BME280;6170;42.206;24.142;2023-04-26T11:20:45;97834.88;;;18.65;53.13
12215;BME280;6170;42.206;24.142;2023-04-26T11:23:12;97830.31;;;18.45;51.56
12215;BME280;6170;42.206;24.142;2023-04-26T11:25:39;97802.63;;;18.48;51.80
12215;BME280;6170;42.206;24.142;2023-04-26T11:28:06;97807.56;;;18.36;52.21
12215;BME280;6170;42.206;24.142;2023-04-26T11:30:33;97783.53;;;18.78;50.02
12215;BME280;6170;42.206;24.142;2023-04-26T11:33:01;97788.25;;;18.63;49.58
12215;BME280;6170;42.206;24.142;2023-04-26T11:35:32;97788.28;;;18.37;51.02
12215;BME280;6170;42.206;24.142;2023-04-26T11:38:02;97789.97;;;19.37;50.04
12215;BME280;6170;42.206;24.142;2023-04-26T11:40:30;97780.16;;;19.41;49.08
12215;BME280;6170;42.206;24.142;2023-04-26T11:42:59;97791.34;;;19.34;48.75
12215;BME280;6170;42.206;24.142;2023-04-26T11:45:27;97787.66;;;19.20;47.30
12215;BME280;6170;42.206;24.142;2023-04-26T11:47:54;97769.56;;;18.41;48.78
12215;BME280;6170;42.206;24.142;2023-04-26T11:50:23;97782.75;;;18.73;48.21
12215;BME280;6170;42.206;24.142;2023-04-26T11:52:54;97775.16;;;18.70;49.15
12215;BME280;6170;42.206;24.142;2023-04-26T11:55:27;97787.16;;;18.59;49.39
12215;BME280;6170;42.206;24.142;2023-04-26T11:57:54;97811.03;;;18.47;50.35
12215;BME280;6170;42.206;24.142;2023-04-26T12:00:22;97775.84;;;18.31;49.82
12215;BME280;6170;42.206;24.142;2023-04-26T12:02:50;97786.63;;;18.52;51.97
12215;BME280;6170;42.206;24.142;2023-04-26T12:05:22;97772.44;;;18.75;51.08
12215;BME280;6170;42.206;24.142;2023-04-26T12:07:49;97804.38;;;18.14;51.62
12215;BME280;6170;42.206;24.142;2023-04-26T12:10:24;97805.75;;;17.50;54.89
12215;BME280;6170;42.206;24.142;2023-04-26T12:12:53;97803.59;;;17.63;55.65
12215;BME280;6170;42.206;24.142;2023-04-26T12:15:25;97808.97;;;17.37;56.08
12215;BME280;6170;42.206;24.142;2023-04-26T12:17:55;97800.31;;;17.20;56.26
12215;BME280;6170;42.206;24.142;2023-04-26T12:20:26;97813.31;;;17.28;57.27
12215;BME280;6170;42.206;24.142;2023-04-26T12:23:01;97811.91;;;17.05;57.45
12215;BME280;6170;42.206;24.142;2023-04-26T12:25:30;97809.97;;;16.81;57.28
12215;BME280;6170;42.206;24.142;2023-04-26T12:27:57;97815.22;;;16.55;58.87
12215;BME280;6170;42.206;24.142;2023-04-26T12:30:25;97810.84;;;16.44;58.65
12215;BME280;6170;42.206;24.142;2023-04-26T12:32:52;97833.00;;;16.36;58.20
12215;BME280;6170;42.206;24.142;2023-04-26T12:35:19;97822.19;;;16.36;57.73
12215;BME280;6170;42.206;24.142;2023-04-26T12:37:46;97819.13;;;16.23;56.66
12215;BME280;6170;42.206;24.142;2023-04-26T12:40:14;97817.94;;;16.50;55.36
12215;BME280;6170;42.206;24.142;2023-04-26T12:42:42;97814.22;;;16.67;55.33
12215;BME280;6170;42.206;24.142;2023-04-26T12:45:09;97814.31;;;16.97;55.47
12215;BME280;6170;42.206;24.142;2023-04-26T12:47:37;97797.53;;;16.85;56.38
12215;BME280;6170;42.206;24.142;2023-04-26T12:50:05;97816.84;;;16.56;56.96
12215;BME280;6170;42.206;24.142;2023-04-26T12:52:33;97819.06;;;16.65;56.87
12215;BME280;6170;42.206;24.142;2023-04-26T12:54:59;97814.28;;;16.77;57.44
12215;BME280;6170;42.206;24.142;2023-04-26T12:57:26;97817.50;;;16.79;56.40
12215;BME280;6170;42.206;24.142;2023-04-26T12:59:55;97821.25;;;16.63;56.60
12215;BME280;6170;42.206;24.142;2023-04-26T13:02:22;97822.91;;;16.79;56.70
12215;BME280;6170;42.206;24.142;2023-04-26T13:04:49;97823.34;;;16.55;56.89
12215;BME280;6170;42.206;24.142;2023-04-26T13:07:16;97816.84;;;16.56;55.72